デンバー の空港の天気 - METARとTAF

デンバー国際空港 ( KDEN / DEN ) - アメリカ コロラド州デンバー
飛行場実況気象(Metar)
観測時間10/16 01:53 MDT (10/16 07:53 UTC)
風向・風速南西 5m/s
視程10km以上
天気現象
少しの雲 雲底高度 7620m
気温4.4℃
湿度55%
気圧1020.7hPa
METARKDEN 160753Z 22009KT 10SM FEW250 04/M04 A3022 RMK AO2 SLP207 T00441039
過去の天気等 Google飛行場航空写真 Wunderground天気予報

過去48時間のMETAR

飛行場予報(TAF)
発表時間: 10/15 23:26 MDT (10/16 05:26 UTC)
予報対象時間: 16日0時 MDT ~ 17日6時 MDT
風向・風速南南東 5m/s
視程10km以上
少しの雲 雲底高度 6100m
16日1時 MDT から
風向・風速南南西 6m/s
視程10km以上
少しの雲 雲底高度 6710m
16日6時 MDT から
風向・風速西南西 3m/s
視程10km以上
全天の4割程度の雲 雲底高度 6710m
16日12時 MDT から
風向・風速南南東 5m/s
視程10km以上
全天の8割程度の雲 雲底高度 6710m
16日21時 MDT から
風向・風速南 4m/s
視程10km以上
全天の4割程度の雲 雲底高度 6710m
KDEN 160526Z 1606/1712 15010KT P6SM FEW200
FM160700 21011KT P6SM FEW220
FM161200 24006KT P6SM SCT220
FM161800 15009KT P6SM BKN220
FM170300 19008KT P6SM SCT220